Time;durP1;ratioP1;P1;durP2;ratioP2;P2;SDS_P1;SDS_P2;PMS_P1;PMS_P2;Temp;Humidity;BMP_temperature;BMP_pressure;BME280_temperature;BME280_humidity;BME280_pressure;Samples;Min_cycle;Max_cycle;Signal;HPM_P1;HPM_P2
2021/10/29 00:00:50;;;;;;;79.70;52.03;;;179.30;2252.80;;;;;;4808879;29;20022;-57
2021/10/29 00:03:16;;;;;;;82.82;51.30;;;179.30;2252.80;;;;;;4808146;29;20031;-57
2021/10/29 00:05:42;;;;;;;80.38;51.08;;;179.30;2252.80;;;;;;4808523;29;20030;-57
2021/10/29 00:08:08;;;;;;;71.32;48.55;;;179.30;2252.80;;;;;;4808747;29;20385;-65
2021/10/29 00:10:35;;;;;;;76.22;48.97;;;179.40;2227.20;;;;;;4808750;29;20027;-65
2021/10/29 00:13:01;;;;;;;76.75;49.35;;;179.40;2227.20;;;;;;4808677;29;20476;-58
2021/10/29 00:15:28;;;;;;;73.65;47.20;;;179.40;2227.20;;;;;;4808741;29;20042;-58
2021/10/29 00:17:54;;;;;;;75.18;48.28;;;179.50;2227.20;;;;;;4808892;29;20042;-66
2021/10/29 00:20:20;;;;;;;73.03;46.42;;;179.50;2201.60;;;;;;4808540;29;20400;-63
2021/10/29 00:22:46;;;;;;;73.63;46.90;;;179.50;2201.60;;;;;;4808523;29;20051;-57
2021/10/29 00:25:13;;;;;;;72.32;46.65;;;179.50;2227.20;;;;;;4808801;29;20485;-58
2021/10/29 00:27:39;;;;;;;70.28;45.33;;;179.50;2227.20;;;;;;4808519;29;20038;-58
2021/10/29 00:30:06;;;;;;;70.45;46.28;;;179.50;2227.20;;;;;;4808399;29;20030;-66
2021/10/29 00:32:32;;;;;;;67.50;44.25;;;179.50;2227.20;;;;;;4808374;29;20397;-63
2021/10/29 00:34:58;;;;;;;70.97;47.65;;;179.50;2201.60;;;;;;4808594;29;20350;-58
2021/10/29 00:37:24;;;;;;;69.95;46.17;;;179.50;2201.60;;;;;;4808331;29;20079;-58
2021/10/29 00:39:50;;;;;;;75.32;45.15;;;179.50;2201.60;;;;;;4808335;29;20042;-57
2021/10/29 00:42:16;;;;;;;73.18;46.30;;;179.50;2227.20;;;;;;4808158;29;20035;-65
2021/10/29 00:44:42;;;;;;;69.55;44.67;;;179.50;2227.20;;;;;;4808359;29;20042;-58
2021/10/29 00:47:09;;;;;;;73.03;46.10;;;179.40;2227.20;;;;;;4808174;29;20031;-58
2021/10/29 00:49:35;;;;;;;75.20;47.42;;;179.40;2227.20;;;;;;4808364;29;20031;-65
2021/10/29 00:52:02;;;;;;;80.28;48.95;;;179.40;2227.20;;;;;;4808303;29;20031;-58
2021/10/29 00:54:28;;;;;;;77.82;47.97;;;179.40;2227.20;;;;;;4808190;29;20031;-58
2021/10/29 00:56:54;;;;;;;72.15;46.92;;;179.30;2252.80;;;;;;4807723;29;20084;-58
2021/10/29 00:59:20;;;;;;;72.85;46.60;;;179.30;2252.80;;;;;;4808183;29;20027;-65
2021/10/29 01:01:47;;;;;;;75.00;46.08;;;179.30;2252.80;;;;;;4807835;29;20034;-65
2021/10/29 01:04:15;;;;;;;77.20;48.00;;;179.30;2252.80;;;;;;4807901;29;20073;-58
2021/10/29 01:06:43;;;;;;;71.60;44.83;;;179.30;2252.80;;;;;;4807756;29;20058;-58
2021/10/29 01:09:09;;;;;;;67.07;43.28;;;179.20;2252.80;;;;;;4807647;29;20038;-66
2021/10/29 01:11:36;;;;;;;72.32;44.67;;;154.40;2252.80;;;;;;4807745;29;20193;-65
2021/10/29 01:14:02;;;;;;;64.45;43.13;;;154.40;2252.80;;;;;;4807791;29;20090;-58
2021/10/29 01:16:28;;;;;;;68.90;43.70;;;154.30;2252.80;;;;;;4807287;29;20027;-65
2021/10/29 01:18:54;;;;;;;66.82;42.30;;;154.20;2252.80;;;;;;4807558;29;20034;-66
2021/10/29 01:21:20;;;;;;;69.93;44.65;;;154.10;2252.80;;;;;;4807565;29;20038;-59
2021/10/29 01:23:46;;;;;;;73.90;44.67;;;154.10;2252.80;;;;;;4807410;29;20042;-58
2021/10/29 01:26:14;;;;;;;68.00;43.70;;;154.00;2252.80;;;;;;4807493;29;20027;-65
2021/10/29 01:28:41;;;;;;;65.53;43.65;;;154.00;2252.80;;;;;;4807577;29;20043;-65
2021/10/29 01:31:07;;;;;;;77.75;45.60;;;154.00;2252.80;;;;;;4807306;29;20031;-58
2021/10/29 01:33:34;;;;;;;66.03;44.28;;;153.90;2252.80;;;;;;4807347;29;20031;-57
2021/10/29 01:36:00;;;;;;;81.80;50.65;;;153.90;2252.80;;;;;;4807240;29;20400;-57
2021/10/29 01:38:39;;;;;;;72.68;45.40;;;154.00;2252.80;;;;;;4807397;29;20027;-66
2021/10/29 01:41:06;;;;;;;76.32;48.22;;;153.90;2252.80;;;;;;4807179;29;20553;-64
2021/10/29 01:43:43;;;;;;;66.90;43.60;;;153.90;2252.80;;;;;;4807054;29;20389;-66
2021/10/29 01:46:10;;;;;;;75.03;46.17;;;153.80;2252.80;;;;;;4807133;29;20110;-58
2021/10/29 01:48:48;;;;;;;75.57;47.13;;;153.80;2252.80;;;;;;4807102;29;20091;-65
2021/10/29 01:51:15;;;;;;;70.60;46.38;;;153.90;2252.80;;;;;;4807097;29;20477;-66
2021/10/29 01:53:42;;;;;;;78.88;49.20;;;154.00;2252.80;;;;;;4807510;29;20473;-58
2021/10/29 01:56:08;;;;;;;74.95;46.92;;;153.90;2252.80;;;;;;4790318;29;20125;-66
2021/10/29 01:58:35;;;;;;;101.88;62.50;;;153.90;2252.80;;;;;;4806944;29;20035;-58
2021/10/29 02:01:02;;;;;;;118.13;70.97;;;153.90;2252.80;;;;;;4806989;29;20042;-57
2021/10/29 02:03:28;;;;;;;91.28;54.75;;;153.90;2252.80;;;;;;4806831;29;20047;-65
2021/10/29 02:05:54;;;;;;;93.80;52.10;;;153.90;2252.80;;;;;;4806823;29;20038;-58
2021/10/29 02:08:24;;;;;;;74.68;45.00;;;153.90;2252.80;;;;;;4807071;29;20063;-63
2021/10/29 02:10:50;;;;;;;76.72;47.10;;;153.90;2252.80;;;;;;4806747;29;20041;-57
2021/10/29 02:13:18;;;;;;;92.72;52.97;;;153.90;2252.80;;;;;;4807016;29;20027;-66
2021/10/29 02:15:43;;;;;;;83.80;48.75;;;153.80;2252.80;;;;;;4806731;29;20038;-58
2021/10/29 02:18:09;;;;;;;72.65;44.38;;;153.70;2252.80;;;;;;4806669;29;20106;-57
2021/10/29 02:20:35;;;;;;;78.20;45.45;;;153.70;2252.80;;;;;;4806646;29;20039;-58
2021/10/29 02:23:01;;;;;;;94.03;52.67;;;153.70;2252.80;;;;;;4806509;29;20129;-63
2021/10/29 02:25:27;;;;;;;92.13;52.75;;;153.70;2252.80;;;;;;4791081;29;20373;-58
2021/10/29 02:27:53;;;;;;;87.95;49.17;;;153.70;2252.80;;;;;;4805908;29;20034;-58
2021/10/29 02:30:19;;;;;;;68.07;43.00;;;153.60;2252.80;;;;;;4806444;29;20035;-57
2021/10/29 02:32:45;;;;;;;67.18;42.38;;;153.60;2252.80;;;;;;4806498;29;20039;-58
2021/10/29 02:35:11;;;;;;;63.38;39.85;;;128.90;2252.80;;;;;;4806472;29;20127;-58
2021/10/29 02:37:37;;;;;;;63.75;40.40;;;128.90;2252.80;;;;;;4806447;29;20491;-57
2021/10/29 02:40:03;;;;;;;61.47;38.63;;;128.90;2252.80;;;;;;4806401;29;20504;-57
2021/10/29 02:42:29;;;;;;;57.83;37.97;;;128.80;2252.80;;;;;;4806319;29;20046;-58
2021/10/29 02:44:55;;;;;;;59.22;38.13;;;128.80;2252.80;;;;;;4806587;29;20503;-64
2021/10/29 02:47:21;;;;;;;61.53;38.50;;;128.70;2252.80;;;;;;4806335;29;20377;-59
2021/10/29 02:49:48;;;;;;;61.15;38.30;;;128.70;2252.80;;;;;;4806288;29;20370;-58
2021/10/29 02:52:14;;;;;;;71.88;42.17;;;128.70;2252.80;;;;;;4806266;29;20039;-58
2021/10/29 02:54:40;;;;;;;57.90;38.92;;;128.70;2252.80;;;;;;4806254;29;20087;-57
2021/10/29 02:57:06;;;;;;;65.80;39.85;;;128.60;2252.80;;;;;;4806030;29;20050;-58
2021/10/29 02:59:32;;;;;;;60.75;37.30;;;128.50;2252.80;;;;;;4806163;29;20088;-57
2021/10/29 03:01:58;;;;;;;56.65;37.70;;;128.50;2252.80;;;;;;4806187;29;20488;-58
2021/10/29 03:04:24;;;;;;;59.17;38.35;;;128.50;2252.80;;;;;;4806164;29;20393;-57
2021/10/29 03:06:50;;;;;;;66.07;39.80;;;128.50;2252.80;;;;;;4806169;29;20041;-58
2021/10/29 03:09:16;;;;;;;57.83;37.72;;;128.60;2252.80;;;;;;4806322;29;20389;-65
2021/10/29 03:11:42;;;;;;;63.95;39.88;;;128.80;2252.80;;;;;;4806082;29;20035;-59
2021/10/29 03:14:08;;;;;;;67.00;37.88;;;128.90;2252.80;;;;;;4806063;29;20027;-57
2021/10/29 03:16:34;;;;;;;61.75;38.38;;;153.60;2252.80;;;;;;4806114;29;20054;-58
2021/10/29 03:19:00;;;;;;;55.72;37.78;;;153.60;2252.80;;;;;;4804871;29;20031;-65
2021/10/29 03:21:26;;;;;;;56.90;38.10;;;128.90;2252.80;;;;;;4806037;29;20397;-64
2021/10/29 03:23:52;;;;;;;59.08;37.25;;;128.90;2252.80;;;;;;4805905;29;20118;-65
2021/10/29 03:26:18;;;;;;;57.92;36.92;;;153.60;2252.80;;;;;;4805889;29;20030;-65
2021/10/29 03:28:44;;;;;;;55.10;35.33;;;153.60;2252.80;;;;;;4806024;29;20058;-66
2021/10/29 03:31:09;;;;;;;51.80;34.45;;;153.70;2252.80;;;;;;4805806;29;20393;-66
2021/10/29 03:33:38;;;;;;;54.05;34.67;;;153.70;2252.80;;;;;;4805937;29;20031;-66
2021/10/29 03:36:05;;;;;;;56.92;34.50;;;153.80;2252.80;;;;;;4805840;29;20068;-65
2021/10/29 03:41:01;;;;;;;50.80;33.20;;;153.70;2252.80;;;;;;4809376;29;20121;-66
2021/10/29 03:46:17;;;;;;;51.95;34.55;;;153.80;2252.80;;;;;;4809242;29;20027;-61
2021/10/29 03:53:46;;;;;;;50.53;32.90;;;153.80;2252.80;;;;;;4809082;29;20030;-65
2021/10/29 03:56:18;;;;;;;48.65;32.15;;;153.70;2252.80;;;;;;4809097;29;20128;-64
2021/10/29 03:58:48;;;;;;;50.65;33.33;;;153.70;2252.80;;;;;;4809281;29;20027;-66
2021/10/29 04:01:15;;;;;;;60.42;36.53;;;153.60;2252.80;;;;;;4792076;29;20027;-66
2021/10/29 04:03:41;;;;;;;50.47;33.42;;;128.90;2252.80;;;;;;4808396;29;20042;-64
2021/10/29 04:06:07;;;;;;;54.42;34.42;;;128.60;2252.80;;;;;;4808440;29;20106;-66
2021/10/29 04:08:33;;;;;;;54.13;34.55;;;128.50;2252.80;;;;;;4807606;29;20097;-64
2021/10/29 04:10:59;;;;;;;60.70;36.88;;;128.50;2252.80;;;;;;4807479;29;20358;-65
2021/10/29 04:13:33;;;;;;;58.25;36.30;;;128.50;2252.80;;;;;;4807507;29;20031;-58
2021/10/29 04:15:59;;;;;;;57.38;35.47;;;128.50;2252.80;;;;;;4807356;29;20031;-66
2021/10/29 04:18:26;;;;;;;51.15;35.55;;;128.60;2252.80;;;;;;4807409;29;20050;-57
2021/10/29 04:20:52;;;;;;;55.30;35.13;;;128.70;2252.80;;;;;;4807313;29;20027;-58
2021/10/29 04:23:18;;;;;;;59.28;36.15;;;128.70;2252.80;;;;;;4807143;29;20039;-58
2021/10/29 04:25:44;;;;;;;56.45;35.33;;;128.70;2252.80;;;;;;4807105;29;20096;-58
2021/10/29 04:28:12;;;;;;;57.20;35.45;;;128.80;2252.80;;;;;;4807114;29;20043;-59
2021/10/29 04:30:41;;;;;;;56.28;35.80;;;128.80;2252.80;;;;;;4807209;29;20027;-66
2021/10/29 04:33:07;;;;;;;54.47;36.08;;;128.80;2252.80;;;;;;4807582;29;20026;-58
2021/10/29 04:35:35;;;;;;;56.92;35.55;;;128.80;2252.80;;;;;;4808573;29;20035;-61
2021/10/29 04:38:05;;;;;;;55.25;36.85;;;128.80;2252.80;;;;;;4808318;29;20035;-58
2021/10/29 04:40:31;;;;;;;57.63;38.47;;;128.80;2252.80;;;;;;4808124;29;20042;-57
2021/10/29 04:42:57;;;;;;;68.45;41.63;;;128.80;2252.80;;;;;;4807979;29;20054;-65
2021/10/29 04:45:23;;;;;;;75.93;45.90;;;128.80;2252.80;;;;;;4808018;29;20041;-64
2021/10/29 04:47:49;;;;;;;71.53;45.92;;;128.80;2252.80;;;;;;4808072;29;20039;-66
2021/10/29 04:50:15;;;;;;;70.32;46.47;;;128.90;2252.80;;;;;;4807019;29;20059;-65
2021/10/29 04:52:41;;;;;;;73.93;46.13;;;153.60;2252.80;;;;;;4807835;29;20078;-65
2021/10/29 04:55:07;;;;;;;68.93;44.60;;;153.70;2252.80;;;;;;4807869;29;20035;-66
2021/10/29 04:57:33;;;;;;;60.78;39.85;;;153.80;2252.80;;;;;;4807662;29;20051;-66
2021/10/29 05:00:01;;;;;;;63.85;42.22;;;153.80;2252.80;;;;;;4807774;29;20393;-65
2021/10/29 05:02:27;;;;;;;62.67;38.95;;;153.70;2252.80;;;;;;4807457;29;20040;-67
2021/10/29 05:04:52;;;;;;;63.42;41.10;;;153.70;2252.80;;;;;;4807674;29;20031;-65
2021/10/29 05:07:18;;;;;;;70.70;45.30;;;153.70;2252.80;;;;;;4807859;29;20139;-64
2021/10/29 05:09:44;;;;;;;76.93;51.90;;;153.70;2252.80;;;;;;4807712;29;20039;-66
2021/10/29 05:12:10;;;;;;;78.97;51.75;;;153.60;2252.80;;;;;;4807793;29;20035;-65
2021/10/29 05:14:36;;;;;;;78.53;52.22;;;153.60;2252.80;;;;;;4807726;29;20072;-65
2021/10/29 05:17:02;;;;;;;71.55;49.97;;;153.60;2252.80;;;;;;4807606;29;20114;-65
2021/10/29 05:19:28;;;;;;;175.50;79.05;;;153.60;2252.80;;;;;;4807773;29;20393;-62
2021/10/29 05:21:54;;;;;;;276.80;127.85;;;153.60;2252.80;;;;;;4807428;29;20045;-62
2021/10/29 05:24:20;;;;;;;153.93;89.82;;;153.60;2252.80;;;;;;4807883;29;20047;-63
2021/10/29 05:26:46;;;;;;;134.40;90.47;;;153.60;2252.80;;;;;;4791178;29;20031;-63
2021/10/29 05:29:12;;;;;;;106.95;77.10;;;153.60;2252.80;;;;;;4807407;29;20389;-67
2021/10/29 05:31:39;;;;;;;89.97;59.15;;;153.70;2252.80;;;;;;4807485;29;20036;-62
2021/10/29 05:34:05;;;;;;;65.82;44.03;;;153.70;2252.80;;;;;;4807332;29;20139;-62
2021/10/29 05:36:31;;;;;;;54.50;37.33;;;153.60;2252.80;;;;;;4807234;29;20553;-63
2021/10/29 05:38:57;;;;;;;54.00;36.80;;;153.70;2252.80;;;;;;4807165;29;20019;-63
2021/10/29 05:41:22;;;;;;;51.58;36.25;;;153.60;2252.80;;;;;;4807173;29;20038;-62
2021/10/29 05:43:48;;;;;;;52.08;34.90;;;153.70;2252.80;;;;;;4807144;29;20122;-62
2021/10/29 05:46:14;;;;;;;52.50;35.85;;;153.60;2252.80;;;;;;4807143;29;20035;-62
2021/10/29 05:48:40;;;;;;;54.95;34.83;;;153.60;2252.80;;;;;;4807300;29;20037;-62
2021/10/29 05:51:10;;;;;;;57.35;35.60;;;153.70;2252.80;;;;;;4807038;29;20022;-62
2021/10/29 05:56:24;;;;;;;65.22;39.85;;;153.70;2252.80;;;;;;4760829;29;20047;-61
2021/10/29 05:58:50;;;;;;;60.88;37.33;;;153.70;2252.80;;;;;;4806788;29;20029;-69
2021/10/29 06:01:16;;;;;;;60.47;36.35;;;153.80;2252.80;;;;;;4806710;29;20389;-61
2021/10/29 06:03:42;;;;;;;55.20;35.15;;;153.80;2252.80;;;;;;4806589;29;20047;-61
2021/10/29 06:06:08;;;;;;;55.35;37.40;;;153.80;2252.80;;;;;;4806720;29;20023;-60
2021/10/29 06:08:34;;;;;;;56.60;36.45;;;153.80;2252.80;;;;;;4806774;29;20091;-61
2021/10/29 06:11:00;;;;;;;55.60;36.65;;;153.80;2252.80;;;;;;4806662;29;20553;-70
2021/10/29 06:13:26;;;;;;;61.45;37.47;;;153.90;2252.80;;;;;;4806701;29;20035;-61
2021/10/29 06:15:52;;;;;;;56.28;35.53;;;153.90;2252.80;;;;;;4806589;29;20125;-69
2021/10/29 06:18:25;;;;;;;53.45;34.75;;;153.80;2252.80;;;;;;4806542;29;20026;-61
2021/10/29 06:20:53;;;;;;;51.05;33.83;;;153.90;2252.80;;;;;;4806816;29;20384;-61
2021/10/29 06:23:22;;;;;;;54.10;34.92;;;154.00;2252.80;;;;;;4806477;29;20046;-64
2021/10/29 06:25:49;;;;;;;59.15;34.97;;;154.00;2252.80;;;;;;4806467;29;20109;-70
2021/10/29 06:28:28;;;;;;;62.25;36.15;;;154.20;2252.80;;;;;;4806766;29;20362;-61
2021/10/29 06:30:56;;;;;;;67.03;39.58;;;154.20;2252.80;;;;;;4807134;29;20018;-61
2021/10/29 06:33:24;;;;;;;53.25;36.97;;;154.30;2252.80;;;;;;4806526;29;20030;-61
2021/10/29 06:35:52;;;;;;;48.40;34.00;;;154.30;2252.80;;;;;;4806467;29;20026;-61
2021/10/29 06:38:18;;;;;;;53.38;33.33;;;154.30;2252.80;;;;;;4806717;29;20042;-70
2021/10/29 06:40:45;;;;;;;47.92;33.55;;;154.30;2252.80;;;;;;4806379;29;20031;-69
2021/10/29 06:43:40;;;;;;;48.45;33.10;;;154.30;2252.80;;;;;;4806825;29;20091;-61
2021/10/29 07:40:19;;;;;;;44.25;27.80;;;230.70;2252.80;;;;;;4809043;29;19915;-69
2021/10/29 07:45:19;;;;;;;65.60;29.15;;;231.00;2252.80;;;;;;4808996;29;20504;-66
2021/10/29 07:47:46;;;;;;;51.50;29.65;;;231.00;2252.80;;;;;;4807254;29;20060;-61
2021/10/29 07:50:13;;;;;;;44.38;27.15;;;231.20;2252.80;;;;;;4808371;29;20023;-61
2021/10/29 07:52:44;;;;;;;44.88;28.80;;;256.00;2252.80;;;;;;4808872;29;20034;-64
2021/10/29 07:55:12;;;;;;;73.82;32.83;;;256.30;2227.20;;;;;;4808462;29;20030;-63
2021/10/29 07:57:39;;;;;;;35.60;23.15;;;256.60;2201.60;;;;;;4808662;29;20143;-62
2021/10/29 08:00:07;;;;;;;53.53;26.02;;;256.80;2150.40;;;;;;4808540;29;20034;-61
2021/10/29 08:02:33;;;;;;;36.72;23.88;;;281.70;2176.00;;;;;;4808646;29;20023;-61
2021/10/29 08:05:00;;;;;;;32.65;23.40;;;281.90;2124.80;;;;;;4808709;29;20110;-68
2021/10/29 08:07:30;;;;;;;40.08;26.25;;;282.30;2073.60;;;;;;4808361;29;20038;-68
2021/10/29 08:09:56;;;;;;;33.65;22.95;;;307.20;2073.60;;;;;;4808407;29;20027;-70
2021/10/29 08:12:23;;;;;;;39.17;23.17;;;307.60;2022.40;;;;;;4808621;29;20058;-65
2021/10/29 08:14:52;;;;;;;37.78;23.52;;;307.90;1996.80;;;;;;4808497;29;20573;-70
2021/10/29 08:17:19;;;;;;;38.33;22.98;;;332.80;1971.20;;;;;;4808519;29;20513;-69
2021/10/29 08:19:46;;;;;;;30.17;21.77;;;333.10;1920.00;;;;;;4808033;29;20039;-61
2021/10/29 08:22:13;;;;;;;36.42;21.20;;;358.40;1868.80;;;;;;4807893;29;20552;-67
2021/10/29 08:24:39;;;;;;;30.00;19.88;;;435.80;1561.60;;;;;;4807171;29;20034;-61
2021/10/29 08:27:06;;;;;;;40.00;23.77;;;537.90;1280.00;;;;;;4808364;29;20034;-62
2021/10/29 08:29:33;;;;;;;33.20;20.45;;;589.30;1126.40;;;;;;4806674;29;20070;-63
2021/10/29 08:31:59;;;;;;;24.55;17.75;;;640.40;972.80;;;;;;4792103;29;20485;-62
2021/10/29 08:34:26;;;;;;;88.80;51.25;;;691.30;844.80;;;;;;4807947;29;20031;-63
2021/10/29 08:36:57;;;;;;;94.65;52.50;;;691.90;870.40;;;;;;4808275;29;20023;-61
2021/10/29 08:39:24;;;;;;;68.45;31.27;;;716.90;844.80;;;;;;4807616;29;20031;-66
2021/10/29 08:41:50;;;;;;;32.55;21.60;;;717.50;793.60;;;;;;4807991;29;20054;-60
2021/10/29 08:44:16;;;;;;;43.10;25.80;;;742.80;793.60;;;;;;4807567;29;20068;-62
2021/10/29 08:46:43;;;;;;;40.38;27.63;;;743.00;793.60;;;;;;4808110;29;20038;-61
2021/10/29 08:49:11;;;;;;;40.70;24.75;;;768.10;768.00;;;;;;4808171;29;20397;-60
2021/10/29 08:51:37;;;;;;;38.20;28.38;;;768.70;742.40;;;;;;4807602;29;20031;-63
2021/10/29 08:54:05;;;;;;;31.75;21.75;;;794.10;742.40;;;;;;4807954;29;20031;-61
2021/10/29 08:56:31;;;;;;;32.30;17.65;;;794.30;768.00;;;;;;4807622;29;20440;-61
2021/10/29 08:59:20;;;;;;;32.85;18.75;;;819.70;691.20;;;;;;4807467;29;20030;-61
2021/10/29 09:01:48;;;;;;;29.10;20.30;;;794.40;716.80;;;;;;4807388;29;20123;-61
2021/10/29 09:04:15;;;;;;;54.63;31.50;;;819.80;691.20;;;;;;4807835;29;20042;-62
2021/10/29 09:06:57;;;;;;;44.58;25.85;;;845.30;716.80;;;;;;4807566;29;20489;-62
2021/10/29 09:12:14;;;;;;;32.40;22.08;;;845.50;665.60;;;;;;4807625;29;20542;-61
2021/10/29 09:33:59;;;;;;;38.90;26.05;;;922.30;563.20;;;;;;4807121;29;20441;-69
2021/10/29 09:36:37;;;;;;;47.58;27.27;;;947.20;537.60;;;;;;4806847;29;20034;-61
2021/10/29 09:39:07;;;;;;;32.58;22.48;;;871.20;588.80;;;;;;4807211;29;20027;-61
2021/10/29 09:41:34;;;;;;;28.65;18.95;;;845.00;665.60;;;;;;4806922;29;20507;-67
2021/10/29 09:44:13;;;;;;;51.00;26.35;;;768.50;691.20;;;;;;4806946;29;20062;-61
2021/10/29 09:46:53;;;;;;;69.80;39.67;;;768.20;716.80;;;;;;4806951;29;20031;-60
2021/10/29 09:49:39;;;;;;;231.15;135.10;;;793.60;691.20;;;;;;4806335;29;20042;-61
2021/10/29 09:57:22;;;;;;;53.40;35.20;;;615.10;870.40;;;;;;4804382;29;20055;-61
2021/10/29 09:59:54;;;;;;;38.40;25.15;;;588.80;972.80;;;;;;4804985;29;20118;-61
2021/10/29 10:02:22;;;;;;;53.55;33.20;;;563.20;1075.20;;;;;;4805598;29;20060;-64
2021/10/29 10:04:54;;;;;;;90.15;53.88;;;563.20;1075.20;;;;;;4805476;29;20074;-69
2021/10/29 10:07:23;;;;;;;51.72;30.90;;;538.10;1075.20;;;;;;4806588;29;20477;-62
2021/10/29 10:09:59;;;;;;;54.40;32.17;;;538.50;1049.60;;;;;;4805471;29;20512;-62
2021/10/29 10:12:31;;;;;;;47.47;32.13;;;563.20;1075.20;;;;;;4806460;29;20038;-61
2021/10/29 10:15:00;;;;;;;28.67;19.25;;;537.80;1100.80;;;;;;4806774;29;20031;-69
2021/10/29 10:17:27;;;;;;;46.05;18.55;;;537.90;1126.40;;;;;;4806544;29;20389;-67
2021/10/29 10:19:56;;;;;;;43.78;25.63;;;538.10;1100.80;;;;;;4806481;29;20026;-68
2021/10/29 10:22:24;;;;;;;23.52;17.65;;;512.40;1152.00;;;;;;4805542;29;20426;-69
2021/10/29 10:24:59;;;;;;;45.25;17.88;;;512.10;1152.00;;;;;;4806151;29;20035;-61
2021/10/29 10:30:07;;;;;;;58.13;31.63;;;487.10;1203.20;;;;;;4806446;29;20087;-65
2021/10/29 10:41:19;;;;;;;82.97;48.35;;;486.50;1203.20;;;;;;4806296;29;20442;-66
2021/10/29 10:44:19;;;;;;;93.43;52.80;;;487.00;1177.60;;;;;;4805973;29;20039;-63
2021/10/29 10:46:50;;;;;;;92.75;49.03;;;486.50;1203.20;;;;;;4806207;29;20039;-59
2021/10/29 10:49:37;;;;;;;106.28;54.80;;;461.60;1254.40;;;;;;4805592;29;20508;-72
2021/10/29 10:52:19;;;;;;;92.38;51.85;;;461.30;1305.60;;;;;;4804185;29;20031;-62
2021/10/29 10:57:29;;;;;;;111.35;58.72;;;512.00;1152.00;;;;;;4804835;29;20063;-62
2021/10/29 11:05:30;;;;;;;52.92;30.23;;;461.30;1280.00;;;;;;4806344;29;20035;-69
2021/10/29 11:10:58;;;;;;;195.90;106.57;;;461.00;1331.20;;;;;;4806148;29;20035;-67
2021/10/29 11:13:45;;;;;;;62.72;31.38;;;461.00;1305.60;;;;;;4805697;29;20117;-62
2021/10/29 11:16:23;;;;;;;43.22;22.10;;;460.80;1331.20;;;;;;4805841;29;20035;-68
2021/10/29 11:19:14;;;;;;;98.75;47.47;;;436.10;1305.60;;;;;;4806014;29;20026;-70
2021/10/29 11:21:52;;;;;;;442.95;241.73;;;436.10;1280.00;;;;;;4805696;29;20430;-70
2021/10/29 11:24:50;;;;;;;92.18;46.60;;;436.00;1280.00;;;;;;4805715;29;20370;-64
2021/10/29 11:27:18;;;;;;;22.67;13.30;;;460.80;1305.60;;;;;;4732627;30;20048;-66
2021/10/29 11:29:52;;;;;;;114.18;66.03;;;436.00;1305.60;;;;;;4732396;30;20051;-65
2021/10/29 11:32:22;;;;;;;135.40;75.90;;;436.00;1280.00;;;;;;4732592;30;20033;-69
2021/10/29 11:34:59;;;;;;;379.88;196.32;;;436.00;1305.60;;;;;;4732606;30;20036;-62
2021/10/29 11:37:26;;;;;;;919.50;543.42;;;436.00;1305.60;;;;;;4732337;30;20041;-61
2021/10/29 11:39:53;;;;;;;588.65;345.65;;;436.00;1305.60;;;;;;4732510;30;20077;-71
2021/10/29 11:42:22;;;;;;;267.63;141.60;;;436.00;1280.00;;;;;;4732151;30;20041;-62
2021/10/29 11:44:49;;;;;;;343.98;172.40;;;436.00;1305.60;;;;;;4732457;30;20415;-62
2021/10/29 11:47:15;;;;;;;69.32;38.17;;;436.00;1280.00;;;;;;4732384;30;20047;-62
2021/10/29 11:49:41;;;;;;;196.85;96.50;;;436.00;1254.40;;;;;;4732471;30;20049;-65
2021/10/29 11:52:08;;;;;;;57.40;28.33;;;436.00;1228.80;;;;;;4731672;30;20430;-62
2021/10/29 11:54:37;;;;;;;214.27;106.68;;;461.00;1203.20;;;;;;4731158;30;20033;-62
2021/10/29 12:08:10;;;;;;;47.45;22.35;;;486.80;1075.20;;;;;;4780733;29;20378;-62
2021/10/29 12:10:43;;;;;;;128.80;63.17;;;512.10;1075.20;;;;;;4808096;29;20517;-61
2021/10/29 12:13:09;;;;;;;58.50;28.73;;;512.70;1024.00;;;;;;4808275;29;20035;-65
2021/10/29 12:15:35;;;;;;;84.32;41.67;;;487.10;1075.20;;;;;;4808325;29;20038;-61
2021/10/29 12:18:11;;;;;;;128.93;70.40;;;486.50;1126.40;;;;;;4807024;29;20041;-63
2021/10/29 12:20:43;;;;;;;117.80;57.00;;;461.60;1459.20;;;;;;4808048;29;20073;-65
2021/10/29 12:23:27;;;;;;;52.45;26.35;;;461.40;1203.20;;;;;;4808227;29;20085;-62
2021/10/29 12:26:05;;;;;;;25.75;14.60;;;461.30;1177.60;;;;;;4807729;29;20033;-63
2021/10/29 12:28:39;;;;;;;37.70;20.42;;;461.20;1177.60;;;;;;4808078;29;20476;-70
2021/10/29 12:31:11;;;;;;;442.15;243.30;;;461.20;1177.60;;;;;;4808218;29;20023;-63
2021/10/29 12:51:56;;;;;;;47.30;24.75;;;461.50;1177.60;;;;;;4807011;29;20042;-63
2021/10/29 12:53:48;;;;;;;99.78;51.03;;;461.50;1126.40;;;;;;4807111;29;20033;-64
2021/10/29 12:59:28;;;;;;;57.28;26.85;;;486.50;1126.40;;;;;;4808155;29;20115;-61
2021/10/29 13:01:59;;;;;;;128.50;61.33;;;486.70;1100.80;;;;;;4807896;29;20031;-60
2021/10/29 13:04:50;;;;;;;155.52;60.90;;;512.00;1049.60;;;;;;4807669;29;20084;-61
2021/10/29 13:07:30;;;;;;;100.68;40.95;;;512.10;1049.60;;;;;;4807861;29;20029;-61
2021/10/29 13:10:10;;;;;;;79.53;31.75;;;512.40;1024.00;;;;;;4807799;29;20077;-61
2021/10/29 13:13:05;;;;;;;39.38;22.58;;;538.00;998.40;;;;;;4807256;29;20156;-61
2021/10/29 13:15:22;;;;;;;43.85;18.70;;;563.20;998.40;;;;;;4806282;29;20081;-63
2021/10/29 13:18:01;;;;;;;51.97;21.73;;;563.30;972.80;;;;;;4807301;29;20086;-60
2021/10/29 13:26:32;;;;;;;33.15;17.10;;;563.50;921.60;;;;;;4807254;29;20027;-63
2021/10/29 13:36:33;;;;;;;34.08;16.95;;;563.50;896.00;;;;;;4807031;29;20503;-62
2021/10/29 14:30:24;;;;;;;62.92;30.48;;;461.30;1075.20;;;;;;4806301;29;20064;-62
2021/10/29 14:32:55;;;;;;;65.15;31.05;;;461.20;1100.80;;;;;;4806011;29;20122;-62
2021/10/29 14:38:02;;;;;;;74.53;27.50;;;460.90;1100.80;;;;;;4806193;29;20034;-69
2021/10/29 14:40:37;;;;;;;47.00;23.25;;;460.90;1100.80;;;;;;4806214;29;20023;-62
2021/10/29 14:43:09;;;;;;;76.47;32.72;;;460.80;1100.80;;;;;;4806030;29;20393;-63
2021/10/29 14:45:52;;;;;;;52.72;23.40;;;436.10;1100.80;;;;;;4805675;29;20277;-66
2021/10/29 15:42:03;;;;;;;38.05;17.98;;;384.70;1331.20;;;;;;4809401;29;20042;-61
2021/10/29 15:44:34;;;;;;;43.45;19.80;;;384.60;1305.60;;;;;;4792445;29;20062;-61
2021/10/29 15:47:01;;;;;;;52.70;22.27;;;384.50;1331.20;;;;;;4808907;29;20031;-61
2021/10/29 15:49:41;;;;;;;52.40;22.90;;;384.50;1331.20;;;;;;4809096;29;20438;-61
2021/10/29 15:52:13;;;;;;;44.75;22.90;;;384.40;1356.80;;;;;;4809374;29;20037;-62
2021/10/29 15:54:45;;;;;;;46.95;27.45;;;384.30;1356.80;;;;;;4809025;29;20507;-61
2021/10/29 15:57:12;;;;;;;46.05;22.70;;;384.20;1356.80;;;;;;4808672;29;20115;-61
2021/10/29 15:59:48;;;;;;;43.05;20.23;;;384.10;1356.80;;;;;;4808572;29;20062;-61
2021/10/29 16:18:39;;;;;;;544.47;359.92;;;359.10;1382.40;;;;;;4796990;29;20058;-62
2021/10/29 16:21:05;;;;;;;190.93;119.90;;;359.00;1382.40;;;;;;4808128;29;20434;-61
2021/10/29 16:23:31;;;;;;;60.85;37.67;;;358.90;1408.00;;;;;;4807734;29;20466;-61
2021/10/29 16:26:08;;;;;;;35.80;20.63;;;358.90;1382.40;;;;;;4807936;29;20103;-61
2021/10/29 16:28:36;;;;;;;36.13;18.83;;;358.90;1382.40;;;;;;4807528;29;20066;-62
2021/10/29 16:31:02;;;;;;;34.53;19.42;;;358.90;1382.40;;;;;;4808105;29;20098;-61
2021/10/29 16:33:32;;;;;;;33.28;16.50;;;358.80;1382.40;;;;;;4812664;29;20422;-61
2021/10/29 16:35:59;;;;;;;37.90;22.95;;;358.70;1382.40;;;;;;4811291;29;20114;-61
2021/10/29 16:38:25;;;;;;;38.55;24.08;;;358.70;1382.40;;;;;;4815465;29;20031;-61
2021/10/29 16:40:51;;;;;;;34.92;16.95;;;358.70;1408.00;;;;;;4809850;29;20117;-65
2021/10/29 16:43:17;;;;;;;29.73;17.08;;;358.60;1408.00;;;;;;4807522;29;20081;-61
2021/10/29 16:45:47;;;;;;;36.88;19.73;;;358.60;1382.40;;;;;;4812370;29;20026;-62
2021/10/29 16:48:15;;;;;;;45.38;21.05;;;358.60;1382.40;;;;;;4816166;29;20370;-61
2021/10/29 16:50:42;;;;;;;46.60;18.65;;;358.60;1382.40;;;;;;4808411;29;20030;-61
2021/10/29 16:53:09;;;;;;;31.15;19.00;;;358.60;1382.40;;;;;;4806232;29;20026;-67
2021/10/29 16:55:36;;;;;;;29.52;17.33;;;358.60;1382.40;;;;;;4813119;29;20041;-66